sensor_id;sensor_type;location;lat;lon;timestamp;P1;durP1;ratioP1;P2;durP2;ratioP2
21103;SDS011;10710;53.398;-1.514;2022-10-15T00:00:45;6.18;;;3.75;;
21103;SDS011;10710;53.398;-1.514;2022-10-15T00:03:12;5.43;;;3.03;;
21103;SDS011;10710;53.398;-1.514;2022-10-15T00:05:38;8.57;;;3.67;;
21103;SDS011;10710;53.398;-1.514;2022-10-15T00:08:05;7.80;;;3.72;;
21103;SDS011;10710;53.398;-1.514;2022-10-15T00:10:36;8.57;;;3.25;;
21103;SDS011;10710;53.398;-1.514;2022-10-15T00:13:03;8.63;;;3.17;;
21103;SDS011;10710;53.398;-1.514;2022-10-15T00:15:29;8.90;;;3.83;;
21103;SDS011;10710;53.398;-1.514;2022-10-15T00:17:55;8.43;;;4.00;;
21103;SDS011;10710;53.398;-1.514;2022-10-15T00:20:21;6.15;;;3.10;;
21103;SDS011;10710;53.398;-1.514;2022-10-15T00:22:47;5.22;;;3.15;;
21103;SDS011;10710;53.398;-1.514;2022-10-15T00:25:14;5.78;;;3.35;;
21103;SDS011;10710;53.398;-1.514;2022-10-15T00:27:41;6.47;;;3.55;;
21103;SDS011;10710;53.398;-1.514;2022-10-15T00:30:08;6.18;;;3.65;;
21103;SDS011;10710;53.398;-1.514;2022-10-15T00:32:34;5.13;;;3.13;;
21103;SDS011;10710;53.398;-1.514;2022-10-15T00:35:00;7.38;;;3.80;;
21103;SDS011;10710;53.398;-1.514;2022-10-15T00:37:26;5.38;;;2.90;;
21103;SDS011;10710;53.398;-1.514;2022-10-15T00:39:51;5.00;;;2.77;;
21103;SDS011;10710;53.398;-1.514;2022-10-15T00:42:17;5.93;;;3.30;;
21103;SDS011;10710;53.398;-1.514;2022-10-15T00:47:13;5.32;;;3.03;;
21103;SDS011;10710;53.398;-1.514;2022-10-15T00:49:44;9.77;;;3.20;;
21103;SDS011;10710;53.398;-1.514;2022-10-15T00:52:43;6.00;;;2.90;;
21103;SDS011;10710;53.398;-1.514;2022-10-15T00:55:15;8.13;;;3.35;;
21103;SDS011;10710;53.398;-1.514;2022-10-15T00:57:46;5.40;;;2.73;;
21103;SDS011;10710;53.398;-1.514;2022-10-15T01:00:14;6.32;;;2.58;;
21103;SDS011;10710;53.398;-1.514;2022-10-15T01:02:41;6.28;;;2.78;;
21103;SDS011;10710;53.398;-1.514;2022-10-15T01:05:08;6.45;;;2.90;;
21103;SDS011;10710;53.398;-1.514;2022-10-15T01:07:34;5.82;;;3.10;;
21103;SDS011;10710;53.398;-1.514;2022-10-15T01:10:00;6.90;;;2.70;;
21103;SDS011;10710;53.398;-1.514;2022-10-15T01:12:40;6.60;;;3.03;;
21103;SDS011;10710;53.398;-1.514;2022-10-15T01:18:21;5.83;;;2.87;;
21103;SDS011;10710;53.398;-1.514;2022-10-15T01:21:15;6.15;;;2.90;;
21103;SDS011;10710;53.398;-1.514;2022-10-15T01:38:02;4.30;;;2.53;;
21103;SDS011;10710;53.398;-1.514;2022-10-15T01:41:08;4.90;;;2.30;;
21103;SDS011;10710;53.398;-1.514;2022-10-15T01:46:42;6.13;;;2.45;;
21103;SDS011;10710;53.398;-1.514;2022-10-15T01:49:25;7.10;;;2.70;;
21103;SDS011;10710;53.398;-1.514;2022-10-15T01:51:54;6.32;;;2.95;;
21103;SDS011;10710;53.398;-1.514;2022-10-15T01:54:24;5.80;;;3.20;;
21103;SDS011;10710;53.398;-1.514;2022-10-15T01:56:52;4.97;;;3.08;;
21103;SDS011;10710;53.398;-1.514;2022-10-15T01:59:23;8.02;;;3.10;;
21103;SDS011;10710;53.398;-1.514;2022-10-15T02:01:51;8.33;;;3.17;;
21103;SDS011;10710;53.398;-1.514;2022-10-15T02:04:22;7.95;;;3.08;;
21103;SDS011;10710;53.398;-1.514;2022-10-15T02:09:57;7.50;;;3.42;;
21103;SDS011;10710;53.398;-1.514;2022-10-15T02:12:55;9.38;;;3.55;;
21103;SDS011;10710;53.398;-1.514;2022-10-15T02:15:43;8.73;;;3.40;;
21103;SDS011;10710;53.398;-1.514;2022-10-15T02:18:25;10.35;;;4.40;;
21103;SDS011;10710;53.398;-1.514;2022-10-15T02:21:20;7.85;;;3.88;;
21103;SDS011;10710;53.398;-1.514;2022-10-15T02:23:57;9.27;;;4.03;;
21103;SDS011;10710;53.398;-1.514;2022-10-15T02:26:30;12.23;;;4.43;;
21103;SDS011;10710;53.398;-1.514;2022-10-15T02:28:58;8.63;;;3.83;;
21103;SDS011;10710;53.398;-1.514;2022-10-15T02:31:28;8.05;;;3.65;;
21103;SDS011;10710;53.398;-1.514;2022-10-15T02:33:56;11.68;;;4.35;;
21103;SDS011;10710;53.398;-1.514;2022-10-15T02:36:25;8.35;;;4.18;;
21103;SDS011;10710;53.398;-1.514;2022-10-15T02:38:51;11.10;;;4.60;;
21103;SDS011;10710;53.398;-1.514;2022-10-15T02:41:22;8.95;;;4.35;;
21103;SDS011;10710;53.398;-1.514;2022-10-15T02:43:48;8.83;;;4.43;;
21103;SDS011;10710;53.398;-1.514;2022-10-15T02:46:14;9.83;;;4.67;;
21103;SDS011;10710;53.398;-1.514;2022-10-15T02:48:41;8.40;;;3.67;;
21103;SDS011;10710;53.398;-1.514;2022-10-15T02:51:07;7.50;;;3.80;;
21103;SDS011;10710;53.398;-1.514;2022-10-15T02:53:33;9.63;;;4.00;;
21103;SDS011;10710;53.398;-1.514;2022-10-15T02:55:59;9.52;;;4.05;;
21103;SDS011;10710;53.398;-1.514;2022-10-15T02:58:25;11.32;;;4.88;;
21103;SDS011;10710;53.398;-1.514;2022-10-15T03:00:51;7.68;;;4.15;;
21103;SDS011;10710;53.398;-1.514;2022-10-15T03:03:17;7.70;;;4.40;;
21103;SDS011;10710;53.398;-1.514;2022-10-15T03:05:42;8.73;;;4.38;;
21103;SDS011;10710;53.398;-1.514;2022-10-15T03:08:08;12.23;;;4.85;;
21103;SDS011;10710;53.398;-1.514;2022-10-15T03:10:34;10.27;;;4.63;;
21103;SDS011;10710;53.398;-1.514;2022-10-15T03:13:03;11.40;;;4.57;;
21103;SDS011;10710;53.398;-1.514;2022-10-15T03:15:30;8.57;;;4.10;;
21103;SDS011;10710;53.398;-1.514;2022-10-15T03:17:56;9.70;;;4.32;;
21103;SDS011;10710;53.398;-1.514;2022-10-15T03:20:22;9.77;;;4.32;;
21103;SDS011;10710;53.398;-1.514;2022-10-15T03:22:48;9.03;;;4.07;;
21103;SDS011;10710;53.398;-1.514;2022-10-15T03:25:14;10.20;;;4.17;;
21103;SDS011;10710;53.398;-1.514;2022-10-15T03:27:40;9.60;;;4.07;;
21103;SDS011;10710;53.398;-1.514;2022-10-15T03:30:06;9.55;;;4.40;;
21103;SDS011;10710;53.398;-1.514;2022-10-15T03:32:32;10.55;;;4.05;;
21103;SDS011;10710;53.398;-1.514;2022-10-15T03:34:58;12.98;;;5.03;;
21103;SDS011;10710;53.398;-1.514;2022-10-15T03:37:24;7.78;;;3.42;;
21103;SDS011;10710;53.398;-1.514;2022-10-15T03:39:50;6.90;;;4.03;;
21103;SDS011;10710;53.398;-1.514;2022-10-15T03:42:16;6.43;;;3.40;;
21103;SDS011;10710;53.398;-1.514;2022-10-15T03:44:42;8.40;;;3.63;;
21103;SDS011;10710;53.398;-1.514;2022-10-15T03:47:07;6.45;;;3.15;;
21103;SDS011;10710;53.398;-1.514;2022-10-15T03:49:33;6.03;;;3.07;;
21103;SDS011;10710;53.398;-1.514;2022-10-15T03:51:59;5.13;;;3.03;;
21103;SDS011;10710;53.398;-1.514;2022-10-15T03:54:25;3.80;;;2.28;;
21103;SDS011;10710;53.398;-1.514;2022-10-15T03:56:50;5.93;;;2.85;;
21103;SDS011;10710;53.398;-1.514;2022-10-15T03:59:16;5.05;;;2.67;;
21103;SDS011;10710;53.398;-1.514;2022-10-15T04:01:42;5.32;;;2.53;;
21103;SDS011;10710;53.398;-1.514;2022-10-15T04:04:09;5.63;;;2.50;;
21103;SDS011;10710;53.398;-1.514;2022-10-15T04:06:36;4.57;;;2.53;;
21103;SDS011;10710;53.398;-1.514;2022-10-15T04:09:03;7.05;;;2.50;;
21103;SDS011;10710;53.398;-1.514;2022-10-15T04:11:28;4.30;;;2.50;;
21103;SDS011;10710;53.398;-1.514;2022-10-15T04:13:54;4.63;;;2.55;;
21103;SDS011;10710;53.398;-1.514;2022-10-15T04:16:20;6.63;;;2.60;;
21103;SDS011;10710;53.398;-1.514;2022-10-15T04:18:48;6.23;;;3.00;;
21103;SDS011;10710;53.398;-1.514;2022-10-15T04:21:14;4.57;;;2.43;;
21103;SDS011;10710;53.398;-1.514;2022-10-15T04:23:40;5.20;;;2.08;;
21103;SDS011;10710;53.398;-1.514;2022-10-15T04:26:06;3.42;;;2.38;;
21103;SDS011;10710;53.398;-1.514;2022-10-15T04:28:32;4.20;;;1.93;;
21103;SDS011;10710;53.398;-1.514;2022-10-15T04:30:58;2.80;;;1.90;;
21103;SDS011;10710;53.398;-1.514;2022-10-15T04:33:25;4.03;;;1.90;;
21103;SDS011;10710;53.398;-1.514;2022-10-15T04:36:02;2.08;;;1.48;;
21103;SDS011;10710;53.398;-1.514;2022-10-15T04:38:32;2.38;;;1.50;;
21103;SDS011;10710;53.398;-1.514;2022-10-15T04:41:03;1.70;;;1.00;;
21103;SDS011;10710;53.398;-1.514;2022-10-15T04:43:31;1.70;;;1.20;;
21103;SDS011;10710;53.398;-1.514;2022-10-15T04:45:57;2.23;;;0.93;;
21103;SDS011;10710;53.398;-1.514;2022-10-15T04:48:24;2.13;;;1.10;;
21103;SDS011;10710;53.398;-1.514;2022-10-15T04:50:52;2.47;;;1.45;;
21103;SDS011;10710;53.398;-1.514;2022-10-15T04:53:18;1.92;;;1.15;;
21103;SDS011;10710;53.398;-1.514;2022-10-15T04:55:44;2.00;;;1.10;;
21103;SDS011;10710;53.398;-1.514;2022-10-15T04:58:11;2.08;;;1.00;;
21103;SDS011;10710;53.398;-1.514;2022-10-15T05:00:37;1.63;;;1.08;;
21103;SDS011;10710;53.398;-1.514;2022-10-15T05:03:04;1.33;;;1.10;;
21103;SDS011;10710;53.398;-1.514;2022-10-15T05:05:30;1.85;;;1.10;;
21103;SDS011;10710;53.398;-1.514;2022-10-15T05:08:00;1.37;;;1.00;;
21103;SDS011;10710;53.398;-1.514;2022-10-15T05:10:28;1.33;;;1.00;;
21103;SDS011;10710;53.398;-1.514;2022-10-15T05:12:54;1.35;;;1.05;;
21103;SDS011;10710;53.398;-1.514;2022-10-15T05:15:19;1.60;;;0.90;;
21103;SDS011;10710;53.398;-1.514;2022-10-15T05:17:45;1.60;;;1.00;;
21103;SDS011;10710;53.398;-1.514;2022-10-15T05:20:11;4.80;;;1.30;;
21103;SDS011;10710;53.398;-1.514;2022-10-15T05:22:37;1.33;;;1.23;;
21103;SDS011;10710;53.398;-1.514;2022-10-15T05:25:02;2.15;;;0.95;;
21103;SDS011;10710;53.398;-1.514;2022-10-15T05:27:28;1.17;;;1.00;;
21103;SDS011;10710;53.398;-1.514;2022-10-15T05:29:55;1.33;;;0.90;;
21103;SDS011;10710;53.398;-1.514;2022-10-15T05:32:20;1.10;;;0.70;;
21103;SDS011;10710;53.398;-1.514;2022-10-15T05:34:46;0.90;;;0.70;;
21103;SDS011;10710;53.398;-1.514;2022-10-15T05:37:12;0.95;;;0.65;;
21103;SDS011;10710;53.398;-1.514;2022-10-15T05:39:38;0.60;;;0.50;;
21103;SDS011;10710;53.398;-1.514;2022-10-15T05:42:04;0.60;;;0.50;;
21103;SDS011;10710;53.398;-1.514;2022-10-15T05:44:30;0.85;;;0.63;;
21103;SDS011;10710;53.398;-1.514;2022-10-15T05:47:00;1.70;;;0.73;;
21103;SDS011;10710;53.398;-1.514;2022-10-15T05:49:26;1.10;;;0.90;;
21103;SDS011;10710;53.398;-1.514;2022-10-15T05:51:51;0.87;;;0.70;;
21103;SDS011;10710;53.398;-1.514;2022-10-15T05:54:17;0.98;;;0.63;;
21103;SDS011;10710;53.398;-1.514;2022-10-15T05:56:43;0.88;;;0.68;;
21103;SDS011;10710;53.398;-1.514;2022-10-15T05:59:09;0.87;;;0.60;;
21103;SDS011;10710;53.398;-1.514;2022-10-15T06:01:35;0.75;;;0.75;;
21103;SDS011;10710;53.398;-1.514;2022-10-15T06:04:01;0.70;;;0.70;;
21103;SDS011;10710;53.398;-1.514;2022-10-15T06:06:27;1.88;;;0.85;;
21103;SDS011;10710;53.398;-1.514;2022-10-15T06:08:53;1.27;;;1.08;;
21103;SDS011;10710;53.398;-1.514;2022-10-15T06:11:20;1.38;;;0.90;;
21103;SDS011;10710;53.398;-1.514;2022-10-15T06:13:46;1.98;;;0.80;;
21103;SDS011;10710;53.398;-1.514;2022-10-15T06:16:12;0.50;;;0.50;;
21103;SDS011;10710;53.398;-1.514;2022-10-15T06:18:39;0.80;;;0.70;;
21103;SDS011;10710;53.398;-1.514;2022-10-15T06:21:06;0.85;;;0.60;;
21103;SDS011;10710;53.398;-1.514;2022-10-15T06:23:32;1.27;;;0.60;;
21103;SDS011;10710;53.398;-1.514;2022-10-15T06:26:05;0.63;;;0.60;;
21103;SDS011;10710;53.398;-1.514;2022-10-15T06:28:32;3.85;;;0.70;;
21103;SDS011;10710;53.398;-1.514;2022-10-15T06:30:58;2.25;;;0.65;;
21103;SDS011;10710;53.398;-1.514;2022-10-15T06:33:25;2.83;;;0.90;;
21103;SDS011;10710;53.398;-1.514;2022-10-15T06:35:51;1.90;;;0.80;;
21103;SDS011;10710;53.398;-1.514;2022-10-15T06:38:17;1.17;;;0.70;;
21103;SDS011;10710;53.398;-1.514;2022-10-15T06:40:43;1.35;;;0.60;;
21103;SDS011;10710;53.398;-1.514;2022-10-15T06:43:09;0.88;;;0.60;;
21103;SDS011;10710;53.398;-1.514;2022-10-15T06:45:36;1.80;;;0.70;;
21103;SDS011;10710;53.398;-1.514;2022-10-15T06:48:05;1.05;;;0.75;;
21103;SDS011;10710;53.398;-1.514;2022-10-15T06:50:33;1.52;;;0.63;;
21103;SDS011;10710;53.398;-1.514;2022-10-15T06:53:01;1.00;;;0.70;;
21103;SDS011;10710;53.398;-1.514;2022-10-15T06:55:27;2.53;;;1.40;;
21103;SDS011;10710;53.398;-1.514;2022-10-15T06:57:55;2.30;;;0.80;;
21103;SDS011;10710;53.398;-1.514;2022-10-15T07:00:22;3.65;;;0.98;;
21103;SDS011;10710;53.398;-1.514;2022-10-15T07:02:49;1.55;;;0.70;;
21103;SDS011;10710;53.398;-1.514;2022-10-15T07:05:16;2.03;;;1.00;;
21103;SDS011;10710;53.398;-1.514;2022-10-15T07:07:49;2.38;;;0.77;;
21103;SDS011;10710;53.398;-1.514;2022-10-15T07:10:16;1.05;;;0.68;;
21103;SDS011;10710;53.398;-1.514;2022-10-15T07:12:42;3.87;;;0.90;;
21103;SDS011;10710;53.398;-1.514;2022-10-15T07:15:08;2.10;;;0.98;;
21103;SDS011;10710;53.398;-1.514;2022-10-15T07:17:34;1.95;;;1.10;;
21103;SDS011;10710;53.398;-1.514;2022-10-15T07:20:01;2.92;;;1.33;;
21103;SDS011;10710;53.398;-1.514;2022-10-15T07:22:27;1.00;;;0.70;;
21103;SDS011;10710;53.398;-1.514;2022-10-15T07:24:53;2.10;;;0.80;;
21103;SDS011;10710;53.398;-1.514;2022-10-15T07:27:19;1.70;;;0.90;;
21103;SDS011;10710;53.398;-1.514;2022-10-15T07:29:44;1.47;;;1.00;;
21103;SDS011;10710;53.398;-1.514;2022-10-15T07:32:10;3.92;;;0.68;;
21103;SDS011;10710;53.398;-1.514;2022-10-15T07:34:36;1.80;;;0.70;;
21103;SDS011;10710;53.398;-1.514;2022-10-15T07:37:02;1.80;;;0.80;;
21103;SDS011;10710;53.398;-1.514;2022-10-15T07:39:27;2.10;;;0.80;;
21103;SDS011;10710;53.398;-1.514;2022-10-15T07:41:53;3.20;;;0.80;;
21103;SDS011;10710;53.398;-1.514;2022-10-15T07:44:19;2.20;;;0.80;;
21103;SDS011;10710;53.398;-1.514;2022-10-15T07:46:46;3.47;;;0.67;;
21103;SDS011;10710;53.398;-1.514;2022-10-15T07:49:12;4.05;;;0.98;;
21103;SDS011;10710;53.398;-1.514;2022-10-15T07:51:40;2.00;;;0.63;;
21103;SDS011;10710;53.398;-1.514;2022-10-15T07:54:06;2.20;;;0.80;;
21103;SDS011;10710;53.398;-1.514;2022-10-15T07:56:32;1.20;;;0.60;;
21103;SDS011;10710;53.398;-1.514;2022-10-15T07:58:58;3.80;;;0.80;;
21103;SDS011;10710;53.398;-1.514;2022-10-15T08:01:23;2.90;;;0.50;;
21103;SDS011;10710;53.398;-1.514;2022-10-15T08:03:49;1.42;;;0.63;;
21103;SDS011;10710;53.398;-1.514;2022-10-15T08:06:16;2.97;;;0.80;;
21103;SDS011;10710;53.398;-1.514;2022-10-15T08:08:43;1.85;;;0.68;;
21103;SDS011;10710;53.398;-1.514;2022-10-15T08:11:12;0.80;;;0.50;;
21103;SDS011;10710;53.398;-1.514;2022-10-15T08:13:40;1.30;;;0.68;;
21103;SDS011;10710;53.398;-1.514;2022-10-15T08:16:09;1.40;;;0.70;;
21103;SDS011;10710;53.398;-1.514;2022-10-15T08:18:35;2.53;;;0.70;;
21103;SDS011;10710;53.398;-1.514;2022-10-15T08:21:02;1.90;;;0.60;;
21103;SDS011;10710;53.398;-1.514;2022-10-15T08:23:28;1.55;;;0.60;;
21103;SDS011;10710;53.398;-1.514;2022-10-15T08:25:56;1.87;;;0.60;;
21103;SDS011;10710;53.398;-1.514;2022-10-15T08:28:23;1.38;;;0.60;;
21103;SDS011;10710;53.398;-1.514;2022-10-15T08:30:49;2.33;;;0.70;;
21103;SDS011;10710;53.398;-1.514;2022-10-15T08:33:15;0.80;;;0.50;;
21103;SDS011;10710;53.398;-1.514;2022-10-15T08:35:41;0.97;;;0.50;;
21103;SDS011;10710;53.398;-1.514;2022-10-15T08:38:08;2.20;;;0.60;;
21103;SDS011;10710;53.398;-1.514;2022-10-15T08:40:37;2.17;;;0.77;;
21103;SDS011;10710;53.398;-1.514;2022-10-15T08:43:10;2.88;;;0.70;;
21103;SDS011;10710;53.398;-1.514;2022-10-15T08:45:46;1.63;;;0.40;;
21103;SDS011;10710;53.398;-1.514;2022-10-15T08:48:16;1.92;;;0.63;;
21103;SDS011;10710;53.398;-1.514;2022-10-15T08:51:05;0.63;;;0.52;;
21103;SDS011;10710;53.398;-1.514;2022-10-15T08:53:37;3.20;;;0.60;;
21103;SDS011;10710;53.398;-1.514;2022-10-15T08:56:17;1.85;;;0.60;;
21103;SDS011;10710;53.398;-1.514;2022-10-15T09:01:56;1.65;;;0.70;;
21103;SDS011;10710;53.398;-1.514;2022-10-15T09:07:34;3.90;;;0.88;;
21103;SDS011;10710;53.398;-1.514;2022-10-15T09:10:15;3.20;;;1.10;;
21103;SDS011;10710;53.398;-1.514;2022-10-15T09:15:22;2.85;;;0.70;;
21103;SDS011;10710;53.398;-1.514;2022-10-15T09:17:51;1.00;;;0.60;;
21103;SDS011;10710;53.398;-1.514;2022-10-15T09:20:24;1.90;;;0.90;;
21103;SDS011;10710;53.398;-1.514;2022-10-15T09:22:54;2.17;;;0.90;;
21103;SDS011;10710;53.398;-1.514;2022-10-15T09:25:21;1.33;;;0.60;;
21103;SDS011;10710;53.398;-1.514;2022-10-15T09:27:49;2.22;;;0.80;;
21103;SDS011;10710;53.398;-1.514;2022-10-15T09:33:31;5.10;;;2.17;;
21103;SDS011;10710;53.398;-1.514;2022-10-15T09:36:23;2.75;;;1.10;;
21103;SDS011;10710;53.398;-1.514;2022-10-15T09:44:02;2.60;;;1.00;;
21103;SDS011;10710;53.398;-1.514;2022-10-15T09:46:29;1.83;;;0.60;;
21103;SDS011;10710;53.398;-1.514;2022-10-15T09:51:28;2.65;;;0.70;;
21103;SDS011;10710;53.398;-1.514;2022-10-15T09:54:47;4.45;;;0.63;;
21103;SDS011;10710;53.398;-1.514;2022-10-15T09:57:29;3.88;;;0.70;;
21103;SDS011;10710;53.398;-1.514;2022-10-15T09:59:57;2.47;;;0.50;;
21103;SDS011;10710;53.398;-1.514;2022-10-15T10:02:28;1.63;;;0.63;;
21103;SDS011;10710;53.398;-1.514;2022-10-15T10:04:54;5.07;;;1.20;;
21103;SDS011;10710;53.398;-1.514;2022-10-15T10:09:59;3.22;;;0.80;;
21103;SDS011;10710;53.398;-1.514;2022-10-15T10:12:32;1.92;;;0.65;;
21103;SDS011;10710;53.398;-1.514;2022-10-15T10:15:03;2.40;;;0.60;;
21103;SDS011;10710;53.398;-1.514;2022-10-15T10:17:53;3.60;;;0.53;;
21103;SDS011;10710;53.398;-1.514;2022-10-15T10:20:21;3.28;;;0.70;;
21103;SDS011;10710;53.398;-1.514;2022-10-15T10:22:53;4.10;;;1.08;;
21103;SDS011;10710;53.398;-1.514;2022-10-15T10:25:39;4.07;;;0.60;;
21103;SDS011;10710;53.398;-1.514;2022-10-15T10:33:18;3.03;;;0.60;;
21103;SDS011;10710;53.398;-1.514;2022-10-15T10:35:50;2.75;;;0.45;;
21103;SDS011;10710;53.398;-1.514;2022-10-15T10:38:20;4.78;;;0.90;;
21103;SDS011;10710;53.398;-1.514;2022-10-15T10:40:50;2.38;;;0.65;;
21103;SDS011;10710;53.398;-1.514;2022-10-15T10:43:22;2.90;;;0.88;;
21103;SDS011;10710;53.398;-1.514;2022-10-15T10:46:36;2.63;;;0.57;;
21103;SDS011;10710;53.398;-1.514;2022-10-15T10:48:42;2.75;;;0.80;;
21103;SDS011;10710;53.398;-1.514;2022-10-15T10:51:11;1.73;;;0.70;;
21103;SDS011;10710;53.398;-1.514;2022-10-15T10:53:59;2.77;;;0.70;;
21103;SDS011;10710;53.398;-1.514;2022-10-15T10:56:34;1.70;;;0.55;;
21103;SDS011;10710;53.398;-1.514;2022-10-15T10:59:10;3.75;;;0.70;;
21103;SDS011;10710;53.398;-1.514;2022-10-15T11:01:44;4.20;;;0.50;;
21103;SDS011;10710;53.398;-1.514;2022-10-15T11:04:18;1.35;;;0.65;;
21103;SDS011;10710;53.398;-1.514;2022-10-15T11:20:30;5.45;;;0.75;;
21103;SDS011;10710;53.398;-1.514;2022-10-15T11:23:23;3.00;;;0.60;;
21103;SDS011;10710;53.398;-1.514;2022-10-15T11:31:38;3.15;;;0.82;;
21103;SDS011;10710;53.398;-1.514;2022-10-15T11:37:43;2.80;;;0.57;;
21103;SDS011;10710;53.398;-1.514;2022-10-15T11:40:01;3.42;;;0.80;;
21103;SDS011;10710;53.398;-1.514;2022-10-15T11:42:54;2.85;;;0.80;;
21103;SDS011;10710;53.398;-1.514;2022-10-15T11:48:15;3.65;;;1.10;;
21103;SDS011;10710;53.398;-1.514;2022-10-15T11:51:01;1.92;;;0.57;;
21103;SDS011;10710;53.398;-1.514;2022-10-15T11:56:17;3.92;;;0.85;;
21103;SDS011;10710;53.398;-1.514;2022-10-15T11:58:50;3.92;;;0.90;;
21103;SDS011;10710;53.398;-1.514;2022-10-15T12:04:13;3.40;;;1.02;;
21103;SDS011;10710;53.398;-1.514;2022-10-15T12:06:49;2.20;;;0.80;;
21103;SDS011;10710;53.398;-1.514;2022-10-15T12:09:19;2.83;;;0.88;;
21103;SDS011;10710;53.398;-1.514;2022-10-15T12:12:01;3.05;;;0.88;;
21103;SDS011;10710;53.398;-1.514;2022-10-15T12:14:43;2.65;;;0.90;;
21103;SDS011;10710;53.398;-1.514;2022-10-15T12:17:19;2.57;;;0.73;;
21103;SDS011;10710;53.398;-1.514;2022-10-15T12:20:17;4.63;;;0.90;;
21103;SDS011;10710;53.398;-1.514;2022-10-15T12:30:42;6.68;;;3.45;;
21103;SDS011;10710;53.398;-1.514;2022-10-15T12:33:28;2.80;;;0.68;;
21103;SDS011;10710;53.398;-1.514;2022-10-15T12:36:23;3.13;;;0.88;;
21103;SDS011;10710;53.398;-1.514;2022-10-15T12:38:56;5.13;;;1.00;;
21103;SDS011;10710;53.398;-1.514;2022-10-15T12:41:37;1.63;;;0.60;;
21103;SDS011;10710;53.398;-1.514;2022-10-15T12:44:07;4.40;;;1.00;;
21103;SDS011;10710;53.398;-1.514;2022-10-15T12:46:44;5.40;;;0.90;;
21103;SDS011;10710;53.398;-1.514;2022-10-15T12:51:55;4.00;;;0.82;;
21103;SDS011;10710;53.398;-1.514;2022-10-15T12:57:00;3.45;;;0.95;;
21103;SDS011;10710;53.398;-1.514;2022-10-15T13:02:55;4.35;;;1.00;;
21103;SDS011;10710;53.398;-1.514;2022-10-15T13:05:02;4.53;;;0.93;;
21103;SDS011;10710;53.398;-1.514;2022-10-15T13:07:30;1.15;;;0.70;;
21103;SDS011;10710;53.398;-1.514;2022-10-15T13:09:59;4.38;;;0.90;;
21103;SDS011;10710;53.398;-1.514;2022-10-15T13:12:27;2.03;;;0.67;;
21103;SDS011;10710;53.398;-1.514;2022-10-15T13:14:55;5.57;;;2.22;;
21103;SDS011;10710;53.398;-1.514;2022-10-15T13:17:27;5.50;;;1.00;;
21103;SDS011;10710;53.398;-1.514;2022-10-15T13:19:57;3.00;;;0.98;;
21103;SDS011;10710;53.398;-1.514;2022-10-15T13:22:29;5.57;;;1.17;;
21103;SDS011;10710;53.398;-1.514;2022-10-15T13:24:57;2.63;;;0.70;;
21103;SDS011;10710;53.398;-1.514;2022-10-15T13:29:58;3.00;;;0.77;;
21103;SDS011;10710;53.398;-1.514;2022-10-15T13:32:26;3.70;;;0.85;;
21103;SDS011;10710;53.398;-1.514;2022-10-15T13:34:56;2.85;;;0.75;;
21103;SDS011;10710;53.398;-1.514;2022-10-15T13:37:29;2.53;;;0.70;;
21103;SDS011;10710;53.398;-1.514;2022-10-15T13:39:57;0.95;;;0.50;;
21103;SDS011;10710;53.398;-1.514;2022-10-15T13:42:24;1.40;;;0.50;;
21103;SDS011;10710;53.398;-1.514;2022-10-15T13:45:24;0.70;;;0.50;;
21103;SDS011;10710;53.398;-1.514;2022-10-15T13:47:50;2.20;;;0.70;;
21103;SDS011;10710;53.398;-1.514;2022-10-15T13:50:24;1.30;;;0.30;;
21103;SDS011;10710;53.398;-1.514;2022-10-15T13:52:58;0.63;;;0.40;;
21103;SDS011;10710;53.398;-1.514;2022-10-15T13:55:31;2.53;;;0.93;;
21103;SDS011;10710;53.398;-1.514;2022-10-15T13:58:05;1.95;;;0.77;;
21103;SDS011;10710;53.398;-1.514;2022-10-15T14:01:12;2.22;;;0.80;;
21103;SDS011;10710;53.398;-1.514;2022-10-15T14:03:46;2.28;;;0.70;;
21103;SDS011;10710;53.398;-1.514;2022-10-15T14:06:21;3.75;;;0.77;;
21103;SDS011;10710;53.398;-1.514;2022-10-15T14:08:56;1.60;;;0.77;;
21103;SDS011;10710;53.398;-1.514;2022-10-15T14:11:24;1.98;;;0.77;;
21103;SDS011;10710;53.398;-1.514;2022-10-15T14:13:51;3.10;;;0.68;;
21103;SDS011;10710;53.398;-1.514;2022-10-15T14:18:45;3.53;;;0.80;;
21103;SDS011;10710;53.398;-1.514;2022-10-15T14:21:13;2.30;;;0.60;;
21103;SDS011;10710;53.398;-1.514;2022-10-15T14:23:42;3.20;;;0.70;;
21103;SDS011;10710;53.398;-1.514;2022-10-15T14:26:11;3.42;;;0.80;;
21103;SDS011;10710;53.398;-1.514;2022-10-15T14:28:39;4.90;;;0.70;;
21103;SDS011;10710;53.398;-1.514;2022-10-15T14:31:06;4.23;;;0.60;;
21103;SDS011;10710;53.398;-1.514;2022-10-15T14:33:38;2.80;;;0.80;;
21103;SDS011;10710;53.398;-1.514;2022-10-15T14:36:23;2.20;;;0.85;;
21103;SDS011;10710;53.398;-1.514;2022-10-15T14:38:51;4.20;;;1.10;;
21103;SDS011;10710;53.398;-1.514;2022-10-15T14:41:22;3.35;;;1.15;;
21103;SDS011;10710;53.398;-1.514;2022-10-15T14:44:04;1.70;;;0.80;;
21103;SDS011;10710;53.398;-1.514;2022-10-15T14:46:43;5.15;;;1.00;;
21103;SDS011;10710;53.398;-1.514;2022-10-15T14:49:18;4.22;;;1.00;;
21103;SDS011;10710;53.398;-1.514;2022-10-15T14:51:55;3.92;;;1.10;;
21103;SDS011;10710;53.398;-1.514;2022-10-15T14:54:40;3.47;;;1.23;;
21103;SDS011;10710;53.398;-1.514;2022-10-15T14:57:19;3.80;;;1.20;;
21103;SDS011;10710;53.398;-1.514;2022-10-15T14:59:51;3.33;;;1.20;;
21103;SDS011;10710;53.398;-1.514;2022-10-15T15:02:22;4.72;;;1.20;;
21103;SDS011;10710;53.398;-1.514;2022-10-15T15:04:51;5.20;;;1.23;;
21103;SDS011;10710;53.398;-1.514;2022-10-15T15:07:33;4.85;;;1.20;;
21103;SDS011;10710;53.398;-1.514;2022-10-15T15:09:59;2.25;;;0.75;;
21103;SDS011;10710;53.398;-1.514;2022-10-15T15:12:25;1.98;;;0.70;;
21103;SDS011;10710;53.398;-1.514;2022-10-15T15:14:52;2.70;;;0.60;;
21103;SDS011;10710;53.398;-1.514;2022-10-15T15:17:19;1.70;;;0.65;;
21103;SDS011;10710;53.398;-1.514;2022-10-15T15:19:48;2.95;;;1.10;;
21103;SDS011;10710;53.398;-1.514;2022-10-15T15:22:17;4.45;;;1.63;;
21103;SDS011;10710;53.398;-1.514;2022-10-15T15:24:46;2.80;;;1.15;;
21103;SDS011;10710;53.398;-1.514;2022-10-15T15:27:23;3.13;;;0.75;;
21103;SDS011;10710;53.398;-1.514;2022-10-15T15:29:51;2.05;;;0.60;;
21103;SDS011;10710;53.398;-1.514;2022-10-15T15:32:17;2.88;;;0.85;;
21103;SDS011;10710;53.398;-1.514;2022-10-15T15:34:44;1.90;;;0.70;;
21103;SDS011;10710;53.398;-1.514;2022-10-15T15:37:11;2.80;;;0.80;;
21103;SDS011;10710;53.398;-1.514;2022-10-15T15:39:45;4.30;;;0.85;;
21103;SDS011;10710;53.398;-1.514;2022-10-15T15:42:13;5.90;;;1.05;;
21103;SDS011;10710;53.398;-1.514;2022-10-15T15:44:40;2.72;;;1.00;;
21103;SDS011;10710;53.398;-1.514;2022-10-15T15:47:06;4.28;;;1.30;;
21103;SDS011;10710;53.398;-1.514;2022-10-15T15:49:32;4.63;;;1.10;;
21103;SDS011;10710;53.398;-1.514;2022-10-15T15:52:00;4.50;;;1.75;;
21103;SDS011;10710;53.398;-1.514;2022-10-15T15:54:26;5.00;;;1.63;;
21103;SDS011;10710;53.398;-1.514;2022-10-15T15:56:52;3.28;;;1.00;;
21103;SDS011;10710;53.398;-1.514;2022-10-15T15:59:18;4.82;;;1.10;;
21103;SDS011;10710;53.398;-1.514;2022-10-15T16:01:45;2.80;;;1.05;;
21103;SDS011;10710;53.398;-1.514;2022-10-15T16:04:11;1.67;;;0.65;;
21103;SDS011;10710;53.398;-1.514;2022-10-15T16:06:37;3.60;;;1.05;;
21103;SDS011;10710;53.398;-1.514;2022-10-15T16:09:03;6.20;;;1.40;;
21103;SDS011;10710;53.398;-1.514;2022-10-15T16:11:33;5.35;;;1.00;;
21103;SDS011;10710;53.398;-1.514;2022-10-15T16:14:02;3.55;;;1.30;;
21103;SDS011;10710;53.398;-1.514;2022-10-15T16:16:27;5.65;;;1.20;;
21103;SDS011;10710;53.398;-1.514;2022-10-15T16:18:53;4.90;;;2.88;;
21103;SDS011;10710;53.398;-1.514;2022-10-15T16:21:20;4.72;;;1.17;;
21103;SDS011;10710;53.398;-1.514;2022-10-15T16:23:48;1.92;;;1.05;;
21103;SDS011;10710;53.398;-1.514;2022-10-15T16:26:15;5.17;;;1.70;;
21103;SDS011;10710;53.398;-1.514;2022-10-15T16:28:41;6.45;;;2.00;;
21103;SDS011;10710;53.398;-1.514;2022-10-15T16:33:40;6.72;;;2.85;;
21103;SDS011;10710;53.398;-1.514;2022-10-15T16:36:06;5.43;;;2.20;;
21103;SDS011;10710;53.398;-1.514;2022-10-15T16:38:32;6.10;;;2.65;;